createdAt,value
2017-12-31T00:00:42.649Z,8.35
2017-12-31T00:01:42.651Z,8.39
2017-12-31T00:02:42.667Z,8.45
2017-12-31T00:03:42.680Z,8.41
2017-12-31T00:04:42.697Z,8.35
2017-12-31T00:05:42.707Z,8.41
2017-12-31T00:06:42.739Z,8.31
2017-12-31T00:07:42.749Z,8.27
2017-12-31T00:08:42.769Z,8.26
2017-12-31T00:09:42.784Z,8.34
2017-12-31T00:10:42.795Z,8.31
2017-12-31T00:11:42.814Z,8.31
2017-12-31T00:12:42.825Z,8.27
2017-12-31T00:13:42.840Z,8.24
2017-12-31T00:14:42.861Z,8.27
2017-12-31T00:15:42.871Z,8.27
2017-12-31T00:16:42.897Z,8.26
2017-12-31T00:17:42.907Z,8.26
2017-12-31T00:18:42.930Z,8.27
2017-12-31T00:19:42.936Z,8.31
2017-12-31T00:20:42.966Z,8.27
2017-12-31T00:21:42.961Z,8.26
2017-12-31T00:22:42.987Z,8.32
2017-12-31T00:23:43.004Z,8.23
2017-12-31T00:24:43.017Z,8.31
2017-12-31T00:25:43.045Z,8.27
2017-12-31T00:26:43.045Z,8.28
2017-12-31T00:27:43.068Z,8.24
2017-12-31T00:28:43.077Z,8.35
2017-12-31T00:29:43.095Z,8.32
2017-12-31T00:30:43.108Z,8.24
2017-12-31T00:31:43.125Z,8.27
2017-12-31T00:32:43.158Z,8.24
2017-12-31T00:33:43.160Z,8.28
2017-12-31T00:34:43.185Z,8.34
2017-12-31T00:35:43.203Z,8.24
2017-12-31T00:36:43.207Z,8.26
2017-12-31T00:37:43.223Z,8.24
2017-12-31T00:38:43.243Z,8.27
2017-12-31T00:39:43.267Z,8.26
2017-12-31T00:40:43.279Z,8.39
2017-12-31T00:41:43.293Z,8.32
2017-12-31T00:42:43.298Z,8.41
2017-12-31T00:43:43.319Z,8.36
2017-12-31T00:44:43.335Z,8.36
2017-12-31T00:45:43.361Z,8.36
2017-12-31T00:46:43.359Z,8.26
2017-12-31T00:47:43.385Z,8.38
2017-12-31T00:48:43.403Z,8.38
2017-12-31T00:49:43.416Z,8.26
2017-12-31T00:50:43.436Z,8.34
2017-12-31T00:51:43.447Z,8.38
2017-12-31T00:52:43.473Z,8.27
2017-12-31T00:53:43.475Z,8.28
2017-12-31T00:54:43.492Z,8.27
2017-12-31T00:55:43.518Z,8.35
2017-12-31T00:56:43.529Z,8.39
2017-12-31T00:57:43.551Z,8.28
2017-12-31T00:58:43.562Z,8.28
2017-12-31T00:59:43.574Z,8.24
2017-12-31T01:00:43.606Z,8.28
2017-12-31T01:01:43.609Z,8.38
2017-12-31T01:02:43.614Z,8.32
2017-12-31T01:03:43.639Z,8.39
2017-12-31T01:04:43.662Z,8.26
2017-12-31T01:05:43.665Z,8.28
2017-12-31T01:06:43.690Z,8.26
2017-12-31T01:07:43.701Z,8.26
2017-12-31T01:08:43.733Z,8.24
2017-12-31T01:09:43.730Z,8.26
2017-12-31T01:10:43.747Z,8.26
2017-12-31T01:11:43.779Z,8.27
2017-12-31T01:12:43.785Z,8.27
2017-12-31T01:13:43.799Z,8.28
2017-12-31T01:14:43.817Z,8.26
2017-12-31T01:15:43.835Z,8.23
2017-12-31T01:16:43.850Z,8.31
2017-12-31T01:17:43.863Z,8.21
2017-12-31T01:18:43.881Z,8.23
2017-12-31T01:19:43.895Z,8.23
2017-12-31T01:20:43.911Z,8.23
2017-12-31T01:21:43.920Z,8.20
2017-12-31T01:22:43.952Z,8.20
2017-12-31T01:23:43.957Z,8.11
2017-12-31T01:24:43.983Z,8.13
2017-12-31T01:25:43.997Z,8.13
2017-12-31T01:26:44.004Z,8.14
2017-12-31T01:27:44.029Z,8.08
2017-12-31T01:28:44.091Z,8.05
2017-12-31T01:29:44.062Z,8.14
2017-12-31T01:30:44.068Z,8.06
2017-12-31T01:31:44.090Z,8.06
2017-12-31T01:32:44.103Z,8.01
2017-12-31T01:33:44.118Z,8.01
2017-12-31T01:34:44.129Z,8.05
2017-12-31T01:35:44.149Z,8.01
2017-12-31T01:36:44.172Z,7.99
2017-12-31T01:37:44.181Z,7.95
2017-12-31T01:38:44.201Z,7.98
2017-12-31T01:39:44.206Z,7.88
2017-12-31T01:40:44.231Z,7.95
2017-12-31T01:41:44.239Z,7.95
2017-12-31T01:42:44.257Z,7.95
2017-12-31T01:43:44.277Z,7.93
2017-12-31T01:44:44.288Z,7.90
2017-12-31T01:45:44.296Z,7.88
2017-12-31T01:46:44.321Z,7.88
2017-12-31T01:47:44.334Z,7.85
2017-12-31T01:48:44.358Z,7.87
2017-12-31T01:49:44.374Z,7.77
2017-12-31T01:50:44.384Z,7.77
2017-12-31T01:51:44.404Z,7.75
2017-12-31T01:52:44.409Z,7.75
2017-12-31T01:53:44.436Z,7.80
2017-12-31T01:54:44.443Z,7.77
2017-12-31T01:55:44.467Z,7.74
2017-12-31T01:56:44.480Z,7.69
2017-12-31T01:57:44.501Z,7.62
2017-12-31T01:58:44.499Z,7.69
2017-12-31T01:59:44.832Z,7.61
2017-12-31T02:00:44.530Z,7.59
2017-12-31T02:01:44.550Z,7.61
2017-12-31T02:02:44.565Z,7.61
2017-12-31T02:03:44.587Z,7.62
2017-12-31T02:04:44.614Z,7.53
2017-12-31T02:05:44.621Z,7.53
2017-12-31T02:06:44.632Z,7.55
2017-12-31T02:07:44.646Z,7.58
2017-12-31T02:08:44.670Z,7.51
2017-12-31T02:09:44.672Z,7.50
2017-12-31T02:10:44.697Z,7.48
2017-12-31T02:11:44.702Z,7.47
2017-12-31T02:12:44.727Z,7.51
2017-12-31T02:13:44.744Z,7.47
2017-12-31T02:14:44.754Z,7.39
2017-12-31T02:15:44.772Z,7.46
2017-12-31T02:16:44.785Z,7.43
2017-12-31T02:17:44.800Z,7.39
2017-12-31T02:18:44.818Z,7.43
2017-12-31T02:19:44.824Z,7.41
2017-12-31T02:20:44.855Z,7.39
2017-12-31T02:21:44.877Z,7.40
2017-12-31T02:22:44.876Z,7.41
2017-12-31T02:23:44.894Z,7.46
2017-12-31T02:24:44.906Z,7.40
2017-12-31T02:25:44.932Z,7.41
2017-12-31T02:26:44.943Z,7.48
2017-12-31T02:27:44.944Z,7.40
2017-12-31T02:28:44.970Z,7.37
2017-12-31T02:29:44.985Z,7.39
2017-12-31T02:30:44.996Z,7.37
2017-12-31T02:31:45.017Z,7.43
2017-12-31T02:32:45.034Z,7.44
2017-12-31T02:33:45.042Z,7.46
2017-12-31T02:34:45.064Z,7.44
2017-12-31T02:35:45.066Z,7.41
2017-12-31T02:36:45.107Z,7.33
2017-12-31T02:37:45.120Z,7.43
2017-12-31T02:38:45.117Z,7.40
2017-12-31T02:39:45.130Z,7.46
2017-12-31T02:40:45.148Z,7.41
2017-12-31T02:41:45.157Z,7.37
2017-12-31T02:42:45.185Z,7.31
2017-12-31T02:43:45.187Z,7.32
2017-12-31T02:44:45.219Z,7.39
2017-12-31T02:45:45.220Z,7.39
2017-12-31T02:46:45.245Z,7.28
2017-12-31T02:47:45.254Z,7.26
2017-12-31T02:48:45.269Z,7.28
2017-12-31T02:49:45.279Z,7.25
2017-12-31T02:50:45.311Z,7.25
2017-12-31T02:51:45.320Z,7.26
2017-12-31T02:52:45.337Z,7.26
2017-12-31T02:53:45.338Z,7.23
2017-12-31T02:54:45.370Z,7.14
2017-12-31T02:55:45.376Z,7.15
2017-12-31T02:56:45.395Z,7.15
2017-12-31T02:57:45.403Z,7.13
2017-12-31T02:58:45.420Z,7.22
2017-12-31T02:59:45.741Z,7.13
2017-12-31T03:00:45.457Z,7.07
2017-12-31T03:01:45.459Z,7.19
2017-12-31T03:02:45.490Z,7.18
2017-12-31T03:03:45.491Z,7.14
2017-12-31T03:04:45.515Z,7.07
2017-12-31T03:05:45.543Z,7.10
2017-12-31T03:06:45.548Z,7.07
2017-12-31T03:07:45.564Z,7.13
2017-12-31T03:08:45.573Z,7.07
2017-12-31T03:09:45.581Z,7.01
2017-12-31T03:10:45.606Z,6.95
2017-12-31T03:11:45.617Z,7.03
2017-12-31T03:12:45.643Z,7.04
2017-12-31T03:13:45.645Z,6.90
2017-12-31T03:14:45.669Z,6.92
2017-12-31T03:15:45.676Z,6.93
2017-12-31T03:16:45.699Z,6.95
2017-12-31T03:17:45.701Z,6.92
2017-12-31T03:18:45.734Z,6.90
2017-12-31T03:19:46.031Z,6.96
2017-12-31T03:20:45.758Z,6.86
2017-12-31T03:21:45.766Z,6.85
2017-12-31T03:22:45.772Z,6.93
2017-12-31T03:23:45.797Z,6.90
2017-12-31T03:24:45.821Z,6.85
2017-12-31T03:25:45.830Z,6.85
2017-12-31T03:26:45.835Z,6.86
2017-12-31T03:27:45.861Z,6.83
2017-12-31T03:28:45.886Z,6.77
2017-12-31T03:29:45.887Z,6.87
2017-12-31T03:30:45.893Z,6.77
2017-12-31T03:31:45.918Z,6.78
2017-12-31T03:32:45.922Z,6.77
2017-12-31T03:33:45.951Z,6.75
2017-12-31T03:34:46.010Z,6.78
2017-12-31T03:35:45.963Z,6.77
2017-12-31T03:36:45.994Z,6.83
2017-12-31T03:37:46.006Z,6.82
2017-12-31T03:38:46.013Z,6.77
2017-12-31T03:39:46.033Z,6.75
2017-12-31T03:40:46.045Z,6.75
2017-12-31T03:41:46.066Z,6.78
2017-12-31T03:42:46.085Z,6.72
2017-12-31T03:43:46.083Z,6.72
2017-12-31T03:44:46.109Z,6.82
2017-12-31T03:45:46.124Z,6.72
2017-12-31T03:46:46.135Z,6.78
2017-12-31T03:47:46.148Z,6.71
2017-12-31T03:48:46.165Z,6.80
2017-12-31T03:49:46.173Z,6.74
2017-12-31T03:50:46.199Z,6.78
2017-12-31T03:51:46.211Z,6.70
2017-12-31T03:52:46.217Z,6.70
2017-12-31T03:53:46.239Z,6.70
2017-12-31T03:54:46.244Z,6.71
2017-12-31T03:55:46.268Z,6.72
2017-12-31T03:56:46.273Z,6.71
2017-12-31T03:57:46.296Z,6.65
2017-12-31T03:58:46.313Z,6.71
2017-12-31T03:59:46.594Z,6.70
2017-12-31T04:00:46.338Z,6.62
2017-12-31T04:01:46.349Z,6.54
2017-12-31T04:02:46.371Z,6.60
2017-12-31T04:03:46.385Z,6.60
2017-12-31T04:04:46.395Z,6.68
2017-12-31T04:05:46.404Z,6.53
2017-12-31T04:06:46.428Z,6.53
2017-12-31T04:07:46.434Z,6.54
2017-12-31T04:08:46.466Z,6.53
2017-12-31T04:09:46.467Z,6.53
2017-12-31T04:10:46.486Z,6.53
2017-12-31T04:11:46.499Z,6.52
2017-12-31T04:12:46.522Z,6.47
2017-12-31T04:13:46.538Z,6.49
2017-12-31T04:14:46.546Z,6.43
2017-12-31T04:15:46.554Z,6.43
2017-12-31T04:16:46.569Z,6.34
2017-12-31T04:17:46.597Z,6.34
2017-12-31T04:18:46.593Z,6.34
2017-12-31T04:19:46.920Z,6.28
2017-12-31T04:20:46.623Z,6.29
2017-12-31T04:21:46.652Z,6.22
2017-12-31T04:22:46.667Z,6.31
2017-12-31T04:23:46.676Z,6.32
2017-12-31T04:24:46.694Z,6.26
2017-12-31T04:25:46.717Z,6.28
2017-12-31T04:26:46.715Z,6.26
2017-12-31T04:27:46.729Z,6.29
2017-12-31T04:28:46.752Z,6.20
2017-12-31T04:29:46.755Z,6.19
2017-12-31T04:30:46.779Z,6.19
2017-12-31T04:31:46.783Z,6.22
2017-12-31T04:32:46.816Z,6.29
2017-12-31T04:33:46.826Z,6.17
2017-12-31T04:34:46.838Z,6.16
2017-12-31T04:35:46.850Z,6.22
2017-12-31T04:36:46.865Z,6.19
2017-12-31T04:37:46.885Z,6.17
2017-12-31T04:38:46.890Z,6.22
2017-12-31T04:39:47.206Z,6.10
2017-12-31T04:40:46.919Z,6.20
2017-12-31T04:41:46.946Z,6.15
2017-12-31T04:42:46.944Z,6.22
2017-12-31T04:43:46.977Z,6.15
2017-12-31T04:44:46.981Z,6.15
2017-12-31T04:45:47.002Z,6.16
2017-12-31T04:46:47.009Z,6.09
2017-12-31T04:47:47.026Z,6.06
2017-12-31T04:48:47.040Z,6.05
2017-12-31T04:49:47.049Z,6.07
2017-12-31T04:50:47.065Z,6.07
2017-12-31T04:51:47.079Z,6.01
2017-12-31T04:52:47.097Z,6.06
2017-12-31T04:53:47.104Z,6.02
2017-12-31T04:54:47.142Z,6.01
2017-12-31T04:55:47.136Z,6.09
2017-12-31T04:56:47.150Z,6.01
2017-12-31T04:57:47.175Z,6.07
2017-12-31T04:58:47.178Z,5.98
2017-12-31T04:59:47.196Z,5.99
2017-12-31T05:00:47.216Z,5.92
2017-12-31T05:01:47.230Z,5.95
2017-12-31T05:02:47.238Z,5.88
2017-12-31T05:03:47.260Z,5.87
2017-12-31T05:04:47.516Z,5.87
2017-12-31T05:05:47.282Z,5.84
2017-12-31T05:06:47.300Z,5.88
2017-12-31T05:07:47.305Z,5.90
2017-12-31T05:08:47.337Z,5.84
2017-12-31T05:09:47.340Z,5.90
2017-12-31T05:10:47.363Z,5.79
2017-12-31T05:11:47.369Z,5.80
2017-12-31T05:12:47.386Z,5.83
2017-12-31T05:13:47.396Z,5.79
2017-12-31T05:14:47.414Z,5.88
2017-12-31T05:15:47.425Z,5.74
2017-12-31T05:16:47.439Z,5.76
2017-12-31T05:17:47.467Z,5.84
2017-12-31T05:18:47.465Z,5.81
2017-12-31T05:19:47.786Z,5.80
2017-12-31T05:20:47.495Z,5.80
2017-12-31T05:21:47.522Z,5.87
2017-12-31T05:22:47.537Z,5.84
2017-12-31T05:23:47.541Z,5.81
2017-12-31T05:24:47.560Z,5.87
2017-12-31T05:25:47.581Z,5.80
2017-12-31T05:26:47.585Z,5.87
2017-12-31T05:27:47.600Z,5.83
2017-12-31T05:28:47.605Z,5.81
2017-12-31T05:29:47.631Z,5.80
2017-12-31T05:30:47.640Z,5.87
2017-12-31T05:31:47.655Z,5.81
2017-12-31T05:32:47.667Z,5.88
2017-12-31T05:33:47.696Z,5.92
2017-12-31T05:34:47.702Z,5.90
2017-12-31T05:35:47.710Z,5.94
2017-12-31T05:36:47.732Z,5.92
2017-12-31T05:37:47.740Z,5.83
2017-12-31T05:38:47.759Z,5.84
2017-12-31T05:39:47.765Z,5.87
2017-12-31T05:40:47.796Z,5.95
2017-12-31T05:41:47.800Z,5.95
2017-12-31T05:42:47.822Z,5.88
2017-12-31T05:43:47.834Z,5.87
2017-12-31T05:44:48.168Z,5.88
2017-12-31T05:45:47.883Z,5.95
2017-12-31T05:46:47.876Z,5.90
2017-12-31T05:47:47.891Z,5.91
2017-12-31T05:48:47.905Z,5.92
2017-12-31T05:49:47.926Z,5.90
2017-12-31T05:50:47.931Z,5.91
2017-12-31T05:51:47.957Z,5.95
2017-12-31T05:52:47.962Z,5.92
2017-12-31T05:53:47.979Z,5.84
2017-12-31T05:54:47.989Z,5.98
2017-12-31T05:55:48.006Z,5.87
2017-12-31T05:56:48.020Z,6.01
2017-12-31T05:57:48.029Z,5.91
2017-12-31T05:58:48.046Z,5.92
2017-12-31T05:59:48.066Z,6.06
2017-12-31T06:00:48.076Z,5.98
2017-12-31T06:01:48.086Z,6.10
2017-12-31T06:02:48.110Z,6.10
2017-12-31T06:03:48.115Z,5.98
2017-12-31T06:04:48.441Z,6.12
2017-12-31T06:05:48.149Z,6.12
2017-12-31T06:06:48.185Z,5.99
2017-12-31T06:07:48.186Z,6.05
2017-12-31T06:08:48.197Z,6.09
2017-12-31T06:09:48.212Z,6.02
2017-12-31T06:10:48.227Z,6.10
2017-12-31T06:11:48.243Z,6.06
2017-12-31T06:12:48.251Z,6.05
2017-12-31T06:13:48.271Z,6.12
2017-12-31T06:14:48.282Z,6.06
2017-12-31T06:15:48.301Z,5.99
2017-12-31T06:16:48.312Z,6.02
2017-12-31T06:17:48.326Z,5.97
2017-12-31T06:18:48.342Z,6.07
2017-12-31T06:19:48.362Z,6.02
2017-12-31T06:20:48.371Z,6.02
2017-12-31T06:21:48.398Z,6.06
2017-12-31T06:22:48.399Z,6.07
2017-12-31T06:23:48.428Z,6.10
2017-12-31T06:24:48.427Z,6.01
2017-12-31T06:25:48.435Z,6.02
2017-12-31T06:26:48.461Z,6.05
2017-12-31T06:27:48.465Z,6.02
2017-12-31T06:28:48.497Z,5.98
2017-12-31T06:29:48.500Z,6.01
2017-12-31T06:30:48.519Z,5.87
2017-12-31T06:31:48.530Z,5.90
2017-12-31T06:32:48.548Z,5.90
2017-12-31T06:33:48.556Z,5.95
2017-12-31T06:34:48.589Z,5.88
2017-12-31T06:35:48.586Z,5.91
2017-12-31T06:36:48.613Z,5.92
2017-12-31T06:37:48.622Z,5.94
2017-12-31T06:38:48.627Z,5.90
2017-12-31T06:39:48.652Z,5.92
2017-12-31T06:40:48.657Z,5.91
2017-12-31T06:41:48.677Z,5.92
2017-12-31T06:42:48.691Z,5.88
2017-12-31T06:43:48.708Z,5.90
2017-12-31T06:44:48.723Z,5.99
2017-12-31T06:45:48.742Z,5.91
2017-12-31T06:46:48.746Z,5.92
2017-12-31T06:47:48.771Z,5.88
2017-12-31T06:48:48.777Z,5.90
2017-12-31T06:49:48.799Z,5.92
2017-12-31T06:50:48.812Z,5.97
2017-12-31T06:51:48.841Z,5.91
2017-12-31T06:52:48.842Z,5.95
2017-12-31T06:53:48.852Z,5.99
2017-12-31T06:54:49.175Z,5.97
2017-12-31T06:55:48.889Z,5.98
2017-12-31T06:56:48.906Z,6.01
2017-12-31T06:57:48.913Z,5.98
2017-12-31T06:58:48.933Z,6.07
2017-12-31T06:59:48.938Z,6.05
2017-12-31T07:00:48.970Z,6.05
2017-12-31T07:01:48.973Z,6.06
2017-12-31T07:02:48.996Z,6.06
2017-12-31T07:03:49.001Z,6.06
2017-12-31T07:04:49.022Z,6.09
2017-12-31T07:05:49.028Z,5.99
2017-12-31T07:06:49.054Z,6.02
2017-12-31T07:07:49.069Z,6.01
2017-12-31T07:08:49.080Z,5.99
2017-12-31T07:09:49.097Z,6.01
2017-12-31T07:10:49.116Z,5.98
2017-12-31T07:11:49.119Z,6.05
2017-12-31T07:12:49.145Z,6.09
2017-12-31T07:13:49.159Z,6.02
2017-12-31T07:14:49.190Z,6.05
2017-12-31T07:15:49.183Z,6.05
2017-12-31T07:16:49.202Z,6.07
2017-12-31T07:17:49.217Z,6.10
2017-12-31T07:18:49.242Z,6.10
2017-12-31T07:19:49.540Z,6.15
2017-12-31T07:20:49.273Z,6.15
2017-12-31T07:21:49.275Z,6.10
2017-12-31T07:22:49.295Z,6.12
2017-12-31T07:23:49.311Z,6.17
2017-12-31T07:24:49.329Z,6.22
2017-12-31T07:25:49.330Z,6.19
2017-12-31T07:26:49.357Z,6.17
2017-12-31T07:27:49.361Z,6.15
2017-12-31T07:28:49.387Z,6.22
2017-12-31T07:29:49.396Z,6.16
2017-12-31T07:30:49.420Z,6.20
2017-12-31T07:31:49.426Z,6.16
2017-12-31T07:32:49.451Z,6.26
2017-12-31T07:33:49.459Z,6.17
2017-12-31T07:34:49.478Z,6.16
2017-12-31T07:35:49.482Z,6.20
2017-12-31T07:36:49.508Z,6.28
2017-12-31T07:37:49.524Z,6.12
2017-12-31T07:38:49.533Z,6.22
2017-12-31T07:39:49.547Z,6.25
2017-12-31T07:40:49.571Z,6.22
2017-12-31T07:41:49.573Z,6.28
2017-12-31T07:42:49.604Z,6.13
2017-12-31T07:43:49.610Z,6.19
2017-12-31T07:44:49.636Z,6.31
2017-12-31T07:45:49.640Z,6.26
2017-12-31T07:46:49.655Z,6.32
2017-12-31T07:47:49.674Z,6.28
2017-12-31T07:48:49.693Z,6.26
2017-12-31T07:49:49.694Z,6.28
2017-12-31T07:50:49.719Z,6.39
2017-12-31T07:51:49.732Z,6.34
2017-12-31T07:52:49.757Z,6.36
2017-12-31T07:53:49.758Z,6.47
2017-12-31T07:54:49.789Z,6.44
2017-12-31T07:55:49.823Z,6.43
2017-12-31T07:56:49.807Z,6.50
2017-12-31T07:57:49.815Z,6.43
2017-12-31T07:58:49.842Z,6.44
2017-12-31T07:59:49.847Z,6.52
2017-12-31T08:00:49.871Z,6.49
2017-12-31T08:01:49.880Z,6.52
2017-12-31T08:02:49.905Z,6.54
2017-12-31T08:03:49.918Z,6.57
2017-12-31T08:04:49.928Z,6.60
2017-12-31T08:05:49.938Z,6.62
2017-12-31T08:06:49.969Z,6.56
2017-12-31T08:07:49.981Z,6.70
2017-12-31T08:08:49.994Z,6.65
2017-12-31T08:09:50.017Z,6.70
2017-12-31T08:10:50.019Z,6.78
2017-12-31T08:11:50.044Z,6.78
2017-12-31T08:12:50.050Z,6.75
2017-12-31T08:13:50.077Z,6.75
2017-12-31T08:14:50.084Z,6.72
2017-12-31T08:15:50.108Z,6.77
2017-12-31T08:16:50.127Z,6.80
2017-12-31T08:17:50.142Z,6.83
2017-12-31T08:18:50.152Z,6.86
2017-12-31T08:19:50.472Z,6.85
2017-12-31T08:20:50.182Z,6.87
2017-12-31T08:21:50.191Z,6.90
2017-12-31T08:22:50.217Z,6.93
2017-12-31T08:23:50.229Z,6.96
2017-12-31T08:24:50.253Z,6.93
2017-12-31T08:25:50.276Z,7.04
2017-12-31T08:26:50.273Z,6.97
2017-12-31T08:27:50.299Z,7.08
2017-12-31T08:28:50.309Z,7.11
2017-12-31T08:29:50.325Z,7.13
2017-12-31T08:30:50.344Z,7.11
2017-12-31T08:31:50.356Z,7.10
2017-12-31T08:32:50.382Z,7.19
2017-12-31T08:33:50.389Z,7.10
2017-12-31T08:34:50.426Z,7.19
2017-12-31T08:35:50.421Z,7.26
2017-12-31T08:36:50.443Z,7.22
2017-12-31T08:37:50.447Z,7.26
2017-12-31T08:38:50.471Z,7.23
2017-12-31T08:39:50.489Z,7.29
2017-12-31T08:40:50.503Z,7.37
2017-12-31T08:41:50.530Z,7.46
2017-12-31T08:42:50.534Z,7.41
2017-12-31T08:43:50.554Z,7.46
2017-12-31T08:44:50.870Z,7.50
2017-12-31T08:45:50.586Z,7.51
2017-12-31T08:46:50.606Z,7.64
2017-12-31T08:47:50.609Z,7.47
2017-12-31T08:48:50.647Z,7.58
2017-12-31T08:49:50.656Z,7.62
2017-12-31T08:50:50.662Z,7.64
2017-12-31T08:51:50.695Z,7.69
2017-12-31T08:52:50.692Z,7.80
2017-12-31T08:53:50.713Z,7.61
2017-12-31T08:54:50.797Z,7.75
2017-12-31T08:55:50.745Z,7.72
2017-12-31T08:56:50.769Z,7.77
2017-12-31T08:57:50.780Z,7.85
2017-12-31T08:58:50.802Z,7.84
2017-12-31T08:59:50.821Z,7.85
2017-12-31T09:00:50.826Z,7.88
2017-12-31T09:01:50.854Z,7.91
2017-12-31T09:02:50.874Z,7.88
2017-12-31T09:03:50.877Z,7.95
2017-12-31T09:04:50.910Z,7.87
2017-12-31T09:05:50.913Z,7.91
2017-12-31T09:06:50.929Z,7.91
2017-12-31T09:07:50.961Z,7.91
2017-12-31T09:08:51.005Z,7.99
2017-12-31T09:09:50.981Z,7.91
2017-12-31T09:10:51.007Z,7.95
2017-12-31T09:11:51.022Z,8.01
2017-12-31T09:12:51.043Z,8.01
2017-12-31T09:13:51.054Z,7.98
2017-12-31T09:14:51.072Z,7.96
2017-12-31T09:15:51.094Z,7.98
2017-12-31T09:16:51.099Z,8.05
2017-12-31T09:17:51.121Z,8.05
2017-12-31T09:18:51.140Z,8.03
2017-12-31T09:19:51.151Z,8.08
2017-12-31T09:20:51.171Z,8.08
2017-12-31T09:21:51.179Z,8.05
2017-12-31T09:22:51.197Z,8.06
2017-12-31T09:23:51.221Z,8.03
2017-12-31T09:24:51.233Z,8.05
2017-12-31T09:25:51.248Z,8.11
2017-12-31T09:26:51.269Z,8.13
2017-12-31T09:27:51.286Z,8.09
2017-12-31T09:28:51.308Z,8.13
2017-12-31T09:29:51.613Z,8.09
2017-12-31T09:30:51.337Z,8.09
2017-12-31T09:31:51.359Z,8.06
2017-12-31T09:32:51.361Z,8.09
2017-12-31T09:33:51.383Z,8.05
2017-12-31T09:34:51.394Z,8.03
2017-12-31T09:35:51.419Z,8.09
2017-12-31T09:36:51.443Z,8.03
2017-12-31T09:37:51.454Z,8.13
2017-12-31T09:38:51.471Z,8.09
2017-12-31T09:39:51.482Z,8.03
2017-12-31T09:40:51.495Z,8.13
2017-12-31T09:41:51.504Z,8.06
2017-12-31T09:42:51.528Z,8.05
2017-12-31T09:43:51.546Z,8.09
2017-12-31T09:44:51.859Z,8.13
2017-12-31T09:45:51.581Z,8.05
2017-12-31T09:46:51.592Z,8.08
2017-12-31T09:47:51.610Z,8.09
2017-12-31T09:48:51.630Z,8.08
2017-12-31T09:49:51.643Z,8.09
2017-12-31T09:50:51.663Z,8.09
2017-12-31T09:51:51.674Z,8.09
2017-12-31T09:52:51.699Z,8.09
2017-12-31T09:53:51.715Z,8.13
2017-12-31T09:54:51.718Z,8.05
2017-12-31T09:55:51.753Z,8.09
2017-12-31T09:56:51.757Z,8.11
2017-12-31T09:57:51.777Z,8.08
2017-12-31T09:58:51.801Z,8.08
2017-12-31T09:59:51.799Z,8.09
2017-12-31T10:00:51.833Z,8.03
2017-12-31T10:01:51.840Z,8.14
2017-12-31T10:02:51.859Z,8.16
2017-12-31T10:03:51.884Z,8.20
2017-12-31T10:04:51.889Z,8.13
2017-12-31T10:05:51.910Z,8.24
2017-12-31T10:06:51.917Z,8.24
2017-12-31T10:07:51.940Z,8.18
2017-12-31T10:08:51.960Z,8.17
2017-12-31T10:09:51.989Z,8.23
2017-12-31T10:10:51.985Z,8.20
2017-12-31T10:11:51.999Z,8.21
2017-12-31T10:12:52.017Z,8.31
2017-12-31T10:13:52.038Z,8.26
2017-12-31T10:14:52.350Z,8.27
2017-12-31T10:15:52.073Z,8.24
2017-12-31T10:16:52.082Z,8.26
2017-12-31T10:17:52.102Z,8.27
2017-12-31T10:18:52.119Z,8.36
2017-12-31T10:19:52.132Z,8.26
2017-12-31T10:20:52.156Z,8.34
2017-12-31T10:21:52.160Z,8.41
2017-12-31T10:22:52.184Z,8.34
2017-12-31T10:23:52.201Z,8.41
2017-12-31T10:24:52.214Z,8.38
2017-12-31T10:25:52.236Z,8.44
2017-12-31T10:26:52.253Z,8.46
2017-12-31T10:27:52.266Z,8.45
2017-12-31T10:28:52.283Z,8.44
2017-12-31T10:29:52.299Z,8.56
2017-12-31T10:30:52.320Z,8.54
2017-12-31T10:31:52.340Z,8.59
2017-12-31T10:32:52.359Z,8.50
2017-12-31T10:33:52.369Z,8.60
2017-12-31T10:34:52.392Z,8.52
2017-12-31T10:35:52.398Z,8.57
2017-12-31T10:36:52.416Z,8.56
2017-12-31T10:37:52.425Z,8.59
2017-12-31T10:38:52.451Z,8.59
2017-12-31T10:39:52.768Z,8.56
2017-12-31T10:40:52.481Z,8.64
2017-12-31T10:41:52.516Z,8.61
2017-12-31T10:42:52.520Z,8.64
2017-12-31T10:43:52.540Z,8.66
2017-12-31T10:44:52.551Z,8.66
2017-12-31T10:45:52.560Z,8.64
2017-12-31T10:46:52.584Z,8.64
2017-12-31T10:47:52.609Z,8.64
2017-12-31T10:48:52.616Z,8.64
2017-12-31T10:49:52.643Z,8.69
2017-12-31T10:50:52.654Z,8.63
2017-12-31T10:51:52.667Z,8.74
2017-12-31T10:52:52.683Z,8.71
2017-12-31T10:53:52.694Z,8.72
2017-12-31T10:54:52.718Z,8.79
2017-12-31T10:55:52.736Z,8.77
2017-12-31T10:56:52.767Z,8.82
2017-12-31T10:57:52.777Z,8.79
2017-12-31T10:58:52.793Z,8.81
2017-12-31T10:59:52.808Z,8.72
2017-12-31T11:00:52.818Z,8.74
2017-12-31T11:01:52.834Z,8.79
2017-12-31T11:02:52.852Z,8.79
2017-12-31T11:03:52.874Z,8.89
2017-12-31T11:04:52.900Z,8.89
2017-12-31T11:05:52.909Z,8.84
2017-12-31T11:06:52.923Z,8.86
2017-12-31T11:07:52.940Z,8.93
2017-12-31T11:08:52.957Z,8.99
2017-12-31T11:09:52.974Z,9.00
2017-12-31T11:10:52.992Z,8.92
2017-12-31T11:11:53.005Z,8.96
2017-12-31T11:12:53.031Z,9.03
2017-12-31T11:13:53.037Z,9.09
2017-12-31T11:14:53.055Z,8.96
2017-12-31T11:15:53.081Z,9.02
2017-12-31T11:16:53.091Z,9.12
2017-12-31T11:17:53.123Z,9.12
2017-12-31T11:18:53.121Z,9.09
2017-12-31T11:19:53.144Z,9.19
2017-12-31T11:20:53.161Z,9.18
2017-12-31T11:21:53.189Z,9.22
2017-12-31T11:22:53.195Z,9.13
2017-12-31T11:23:53.216Z,9.16
2017-12-31T11:24:53.224Z,9.27
2017-12-31T11:25:53.251Z,9.30
2017-12-31T11:26:53.280Z,9.24
2017-12-31T11:27:53.281Z,9.29
2017-12-31T11:28:53.299Z,9.30
2017-12-31T11:29:53.313Z,9.34
2017-12-31T11:30:53.345Z,9.31
2017-12-31T11:31:53.350Z,9.34
2017-12-31T11:32:53.375Z,9.44
2017-12-31T11:33:53.378Z,9.47
2017-12-31T11:34:53.403Z,9.49
2017-12-31T11:35:53.423Z,9.48
2017-12-31T11:36:53.425Z,9.52
2017-12-31T11:37:53.446Z,9.45
2017-12-31T11:38:53.473Z,9.47
2017-12-31T11:39:53.489Z,9.54
2017-12-31T11:40:53.502Z,9.58
2017-12-31T11:41:53.530Z,9.58
2017-12-31T11:42:53.529Z,9.59
2017-12-31T11:43:53.556Z,9.58
2017-12-31T11:44:53.578Z,9.62
2017-12-31T11:45:53.588Z,9.74
2017-12-31T11:46:53.606Z,9.72
2017-12-31T11:47:53.624Z,9.64
2017-12-31T11:48:53.655Z,9.74
2017-12-31T11:49:53.664Z,9.74
2017-12-31T11:50:53.675Z,9.69
2017-12-31T11:51:53.706Z,9.73
2017-12-31T11:52:53.710Z,9.77
2017-12-31T11:53:53.733Z,9.80
2017-12-31T11:54:53.759Z,9.73
2017-12-31T11:55:53.757Z,9.81
2017-12-31T11:56:53.783Z,9.82
2017-12-31T11:57:53.804Z,9.77
2017-12-31T11:58:53.808Z,9.81
2017-12-31T11:59:54.142Z,9.81
2017-12-31T12:00:53.852Z,9.85
2017-12-31T12:01:53.863Z,9.84
2017-12-31T12:02:53.893Z,9.90
2017-12-31T12:03:53.902Z,9.88
2017-12-31T12:04:53.924Z,9.87
2017-12-31T12:05:53.937Z,9.95
2017-12-31T12:06:53.965Z,9.91
2017-12-31T12:07:53.968Z,9.91
2017-12-31T12:08:54.028Z,10.00
2017-12-31T12:09:54.013Z,9.97
2017-12-31T12:10:54.045Z,10.00
2017-12-31T12:11:54.043Z,10.00
2017-12-31T12:12:54.068Z,10.09
2017-12-31T12:13:54.083Z,10.12
2017-12-31T12:14:54.116Z,10.15
2017-12-31T12:15:54.114Z,10.09
2017-12-31T12:16:54.131Z,10.15
2017-12-31T12:17:54.146Z,10.07
2017-12-31T12:18:54.166Z,10.17
2017-12-31T12:19:54.490Z,10.10
2017-12-31T12:20:54.208Z,10.18
2017-12-31T12:21:54.224Z,10.24
2017-12-31T12:22:54.240Z,10.24
2017-12-31T12:23:54.266Z,10.30
2017-12-31T12:24:54.264Z,10.27
2017-12-31T12:25:54.286Z,10.33
2017-12-31T12:26:54.312Z,10.36
2017-12-31T12:27:54.316Z,10.36
2017-12-31T12:28:54.342Z,10.41
2017-12-31T12:29:54.363Z,10.34
2017-12-31T12:30:54.399Z,10.39
2017-12-31T12:31:54.393Z,10.42
2017-12-31T12:32:54.410Z,10.43
2017-12-31T12:33:54.432Z,10.41
2017-12-31T12:34:54.463Z,10.55
2017-12-31T12:35:54.468Z,10.53
2017-12-31T12:36:54.488Z,10.55
2017-12-31T12:37:54.517Z,10.51
2017-12-31T12:38:54.514Z,10.58
2017-12-31T12:39:54.840Z,10.61
2017-12-31T12:40:54.556Z,10.69
2017-12-31T12:41:54.579Z,10.67
2017-12-31T12:42:54.598Z,10.71
2017-12-31T12:43:54.610Z,10.72
2017-12-31T12:44:54.645Z,10.79
2017-12-31T12:45:54.656Z,10.79
2017-12-31T12:46:54.659Z,10.77
2017-12-31T12:47:54.685Z,10.77
2017-12-31T12:48:54.704Z,10.80
2017-12-31T12:49:54.724Z,10.72
2017-12-31T12:50:54.743Z,10.87
2017-12-31T12:51:54.755Z,10.75
2017-12-31T12:52:54.779Z,10.79
2017-12-31T12:53:54.801Z,10.77
2017-12-31T12:54:54.812Z,10.86
2017-12-31T12:55:54.840Z,10.77
2017-12-31T12:56:54.849Z,10.83
2017-12-31T12:57:54.877Z,10.80
2017-12-31T12:58:54.891Z,10.90
2017-12-31T12:59:54.906Z,10.79
2017-12-31T13:00:54.945Z,10.79
2017-12-31T13:01:54.947Z,10.92
2017-12-31T13:02:54.959Z,10.83
2017-12-31T13:03:54.978Z,10.84
2017-12-31T13:04:54.994Z,10.82
2017-12-31T13:05:55.020Z,10.87
2017-12-31T13:06:55.031Z,10.92
2017-12-31T13:07:55.047Z,10.89
2017-12-31T13:08:55.073Z,11.02
2017-12-31T13:09:55.101Z,10.98
2017-12-31T13:10:55.098Z,10.95
2017-12-31T13:11:55.124Z,10.98
2017-12-31T13:12:55.150Z,10.98
2017-12-31T13:13:55.162Z,11.04
2017-12-31T13:14:55.188Z,10.98
2017-12-31T13:15:55.200Z,10.97
2017-12-31T13:16:55.219Z,11.08